sensor_id;sensor_type;location;lat;lon;timestamp;P1;durP1;ratioP1;P2;durP2;ratioP2
14272;SDS011;7220;49.450;11.052;2023-01-30T00:00:30;19.77;;;14.37;;
14272;SDS011;7220;49.450;11.052;2023-01-30T00:04:31;19.13;;;14.30;;
14272;SDS011;7220;49.450;11.052;2023-01-30T00:08:31;22.57;;;14.90;;
14272;SDS011;7220;49.450;11.052;2023-01-30T00:12:32;22.10;;;15.13;;
14272;SDS011;7220;49.450;11.052;2023-01-30T00:16:32;19.53;;;13.90;;
14272;SDS011;7220;49.450;11.052;2023-01-30T00:20:32;20.73;;;15.37;;
14272;SDS011;7220;49.450;11.052;2023-01-30T00:24:33;19.07;;;14.23;;
14272;SDS011;7220;49.450;11.052;2023-01-30T00:28:33;21.13;;;13.67;;
14272;SDS011;7220;49.450;11.052;2023-01-30T00:32:33;20.17;;;14.87;;
14272;SDS011;7220;49.450;11.052;2023-01-30T00:36:34;20.60;;;14.70;;
14272;SDS011;7220;49.450;11.052;2023-01-30T00:40:34;19.93;;;14.83;;
14272;SDS011;7220;49.450;11.052;2023-01-30T00:44:34;22.13;;;15.97;;
14272;SDS011;7220;49.450;11.052;2023-01-30T00:48:53;19.10;;;14.20;;
14272;SDS011;7220;49.450;11.052;2023-01-30T00:52:53;19.93;;;14.70;;
14272;SDS011;7220;49.450;11.052;2023-01-30T00:56:54;19.20;;;14.83;;
14272;SDS011;7220;49.450;11.052;2023-01-30T01:00:54;20.10;;;15.00;;
14272;SDS011;7220;49.450;11.052;2023-01-30T01:04:55;22.00;;;15.30;;
14272;SDS011;7220;49.450;11.052;2023-01-30T01:08:55;20.63;;;14.83;;
14272;SDS011;7220;49.450;11.052;2023-01-30T01:12:55;18.97;;;14.73;;
14272;SDS011;7220;49.450;11.052;2023-01-30T01:16:56;21.60;;;14.80;;
14272;SDS011;7220;49.450;11.052;2023-01-30T01:20:56;20.50;;;15.00;;
14272;SDS011;7220;49.450;11.052;2023-01-30T01:24:56;20.00;;;14.37;;
14272;SDS011;7220;49.450;11.052;2023-01-30T01:28:57;19.30;;;14.70;;
14272;SDS011;7220;49.450;11.052;2023-01-30T01:32:58;21.10;;;13.53;;
14272;SDS011;7220;49.450;11.052;2023-01-30T01:36:58;19.40;;;13.77;;
14272;SDS011;7220;49.450;11.052;2023-01-30T01:40:58;22.27;;;15.30;;
14272;SDS011;7220;49.450;11.052;2023-01-30T01:49:24;22.63;;;15.90;;
14272;SDS011;7220;49.450;11.052;2023-01-30T01:53:29;22.33;;;14.37;;
14272;SDS011;7220;49.450;11.052;2023-01-30T01:57:35;18.87;;;13.97;;
14272;SDS011;7220;49.450;11.052;2023-01-30T02:01:41;22.80;;;14.73;;
14272;SDS011;7220;49.450;11.052;2023-01-30T02:05:42;23.33;;;15.77;;
14272;SDS011;7220;49.450;11.052;2023-01-30T02:09:48;20.95;;;14.13;;
14272;SDS011;7220;49.450;11.052;2023-01-30T02:13:49;20.85;;;14.63;;
14272;SDS011;7220;49.450;11.052;2023-01-30T02:17:49;21.83;;;14.50;;
14272;SDS011;7220;49.450;11.052;2023-01-30T02:30:42;20.67;;;13.60;;
14272;SDS011;7220;49.450;11.052;2023-01-30T02:39:32;18.52;;;13.55;;
14272;SDS011;7220;49.450;11.052;2023-01-30T02:48:03;18.25;;;13.38;;
14272;SDS011;7220;49.450;11.052;2023-01-30T02:52:05;16.98;;;12.68;;
14272;SDS011;7220;49.450;11.052;2023-01-30T02:56:08;18.73;;;13.15;;
14272;SDS011;7220;49.450;11.052;2023-01-30T03:00:09;18.92;;;13.73;;
14272;SDS011;7220;49.450;11.052;2023-01-30T03:04:22;16.15;;;11.57;;
14272;SDS011;7220;49.450;11.052;2023-01-30T03:17:26;17.90;;;11.82;;
14272;SDS011;7220;49.450;11.052;2023-01-30T03:21:28;16.80;;;12.25;;
14272;SDS011;7220;49.450;11.052;2023-01-30T03:25:28;16.50;;;12.20;;
14272;SDS011;7220;49.450;11.052;2023-01-30T03:29:30;16.23;;;11.45;;
14272;SDS011;7220;49.450;11.052;2023-01-30T03:33:30;16.10;;;12.07;;
14272;SDS011;7220;49.450;11.052;2023-01-30T03:37:31;15.55;;;11.30;;
14272;SDS011;7220;49.450;11.052;2023-01-30T03:41:31;15.60;;;12.00;;
14272;SDS011;7220;49.450;11.052;2023-01-30T03:45:31;15.45;;;11.52;;
14272;SDS011;7220;49.450;11.052;2023-01-30T03:49:32;16.55;;;11.75;;
14272;SDS011;7220;49.450;11.052;2023-01-30T03:53:32;17.55;;;11.77;;
14272;SDS011;7220;49.450;11.052;2023-01-30T03:57:32;17.73;;;11.80;;
14272;SDS011;7220;49.450;11.052;2023-01-30T04:01:33;15.50;;;11.30;;
14272;SDS011;7220;49.450;11.052;2023-01-30T04:05:33;15.40;;;11.60;;
14272;SDS011;7220;49.450;11.052;2023-01-30T04:09:33;15.27;;;11.15;;
14272;SDS011;7220;49.450;11.052;2023-01-30T04:13:33;14.27;;;11.07;;
14272;SDS011;7220;49.450;11.052;2023-01-30T04:17:34;16.20;;;11.90;;
14272;SDS011;7220;49.450;11.052;2023-01-30T04:21:34;13.05;;;10.27;;
14272;SDS011;7220;49.450;11.052;2023-01-30T04:25:34;16.98;;;11.60;;
14272;SDS011;7220;49.450;11.052;2023-01-30T04:29:35;13.82;;;10.95;;
14272;SDS011;7220;49.450;11.052;2023-01-30T04:33:35;15.20;;;11.05;;
14272;SDS011;7220;49.450;11.052;2023-01-30T04:37:38;14.38;;;10.52;;
14272;SDS011;7220;49.450;11.052;2023-01-30T04:41:39;15.02;;;10.85;;
14272;SDS011;7220;49.450;11.052;2023-01-30T04:45:45;13.13;;;10.30;;
14272;SDS011;7220;49.450;11.052;2023-01-30T04:49:46;12.38;;;9.50;;
14272;SDS011;7220;49.450;11.052;2023-01-30T04:53:46;12.50;;;9.80;;
14272;SDS011;7220;49.450;11.052;2023-01-30T04:57:46;13.90;;;10.63;;
14272;SDS011;7220;49.450;11.052;2023-01-30T05:01:46;14.38;;;11.10;;
14272;SDS011;7220;49.450;11.052;2023-01-30T05:05:47;13.07;;;10.10;;
14272;SDS011;7220;49.450;11.052;2023-01-30T05:09:47;13.45;;;10.10;;
14272;SDS011;7220;49.450;11.052;2023-01-30T05:13:48;12.32;;;9.60;;
14272;SDS011;7220;49.450;11.052;2023-01-30T05:17:49;12.48;;;9.50;;
14272;SDS011;7220;49.450;11.052;2023-01-30T05:21:49;14.45;;;10.32;;
14272;SDS011;7220;49.450;11.052;2023-01-30T05:25:49;14.10;;;10.43;;
14272;SDS011;7220;49.450;11.052;2023-01-30T05:29:49;14.43;;;10.88;;
14272;SDS011;7220;49.450;11.052;2023-01-30T05:33:50;13.75;;;10.70;;
14272;SDS011;7220;49.450;11.052;2023-01-30T05:37:51;14.45;;;11.02;;
14272;SDS011;7220;49.450;11.052;2023-01-30T05:41:51;17.02;;;11.88;;
14272;SDS011;7220;49.450;11.052;2023-01-30T05:45:52;15.07;;;12.25;;
14272;SDS011;7220;49.450;11.052;2023-01-30T05:49:56;16.08;;;11.10;;
14272;SDS011;7220;49.450;11.052;2023-01-30T05:53:56;17.05;;;11.63;;
14272;SDS011;7220;49.450;11.052;2023-01-30T05:57:56;17.05;;;11.25;;
14272;SDS011;7220;49.450;11.052;2023-01-30T06:01:57;17.83;;;12.80;;
14272;SDS011;7220;49.450;11.052;2023-01-30T06:05:57;17.10;;;11.77;;
14272;SDS011;7220;49.450;11.052;2023-01-30T06:09:57;17.30;;;12.48;;
14272;SDS011;7220;49.450;11.052;2023-01-30T06:13:58;16.17;;;12.10;;
14272;SDS011;7220;49.450;11.052;2023-01-30T06:17:58;18.92;;;11.98;;
14272;SDS011;7220;49.450;11.052;2023-01-30T06:21:58;17.67;;;12.80;;
14272;SDS011;7220;49.450;11.052;2023-01-30T06:25:59;18.40;;;12.68;;
14272;SDS011;7220;49.450;11.052;2023-01-30T06:29:59;18.65;;;12.30;;
14272;SDS011;7220;49.450;11.052;2023-01-30T06:33:59;16.90;;;12.40;;
14272;SDS011;7220;49.450;11.052;2023-01-30T06:38:00;18.00;;;12.25;;
14272;SDS011;7220;49.450;11.052;2023-01-30T06:42:00;16.48;;;11.85;;
14272;SDS011;7220;49.450;11.052;2023-01-30T06:46:00;15.07;;;11.40;;
14272;SDS011;7220;49.450;11.052;2023-01-30T06:50:01;15.88;;;11.75;;
14272;SDS011;7220;49.450;11.052;2023-01-30T06:54:01;12.95;;;10.20;;
14272;SDS011;7220;49.450;11.052;2023-01-30T06:58:08;15.15;;;10.25;;
14272;SDS011;7220;49.450;11.052;2023-01-30T07:02:12;13.82;;;10.20;;
14272;SDS011;7220;49.450;11.052;2023-01-30T07:06:13;14.10;;;10.25;;
14272;SDS011;7220;49.450;11.052;2023-01-30T07:10:13;12.80;;;9.43;;
14272;SDS011;7220;49.450;11.052;2023-01-30T07:14:13;14.35;;;10.35;;
14272;SDS011;7220;49.450;11.052;2023-01-30T07:18:14;13.10;;;9.88;;
14272;SDS011;7220;49.450;11.052;2023-01-30T07:22:14;12.40;;;9.60;;
14272;SDS011;7220;49.450;11.052;2023-01-30T07:26:15;12.65;;;9.52;;
14272;SDS011;7220;49.450;11.052;2023-01-30T07:30:15;12.98;;;9.70;;
14272;SDS011;7220;49.450;11.052;2023-01-30T07:34:16;12.02;;;9.10;;
14272;SDS011;7220;49.450;11.052;2023-01-30T07:38:16;13.13;;;9.57;;
14272;SDS011;7220;49.450;11.052;2023-01-30T07:42:16;13.63;;;9.45;;
14272;SDS011;7220;49.450;11.052;2023-01-30T07:46:17;12.93;;;9.60;;
14272;SDS011;7220;49.450;11.052;2023-01-30T07:50:17;11.30;;;8.70;;
14272;SDS011;7220;49.450;11.052;2023-01-30T07:54:18;23.35;;;12.63;;
14272;SDS011;7220;49.450;11.052;2023-01-30T07:58:18;12.40;;;8.55;;
14272;SDS011;7220;49.450;11.052;2023-01-30T08:02:18;11.32;;;8.00;;
14272;SDS011;7220;49.450;11.052;2023-01-30T08:06:18;10.55;;;8.10;;
14272;SDS011;7220;49.450;11.052;2023-01-30T08:10:19;12.13;;;8.77;;
14272;SDS011;7220;49.450;11.052;2023-01-30T08:14:19;11.55;;;8.07;;
14272;SDS011;7220;49.450;11.052;2023-01-30T08:18:20;9.38;;;7.18;;
14272;SDS011;7220;49.450;11.052;2023-01-30T08:22:21;9.80;;;7.68;;
14272;SDS011;7220;49.450;11.052;2023-01-30T08:26:21;10.05;;;7.20;;
14272;SDS011;7220;49.450;11.052;2023-01-30T08:30:22;10.65;;;7.68;;
14272;SDS011;7220;49.450;11.052;2023-01-30T08:34:22;8.43;;;7.38;;
14272;SDS011;7220;49.450;11.052;2023-01-30T08:38:22;8.32;;;6.40;;
14272;SDS011;7220;49.450;11.052;2023-01-30T08:42:23;9.32;;;7.05;;
14272;SDS011;7220;49.450;11.052;2023-01-30T08:46:23;9.18;;;6.63;;
14272;SDS011;7220;49.450;11.052;2023-01-30T08:50:23;9.20;;;7.47;;
14272;SDS011;7220;49.450;11.052;2023-01-30T08:54:24;9.55;;;7.03;;
14272;SDS011;7220;49.450;11.052;2023-01-30T08:58:24;9.68;;;7.80;;
14272;SDS011;7220;49.450;11.052;2023-01-30T09:02:24;11.38;;;7.30;;
14272;SDS011;7220;49.450;11.052;2023-01-30T09:06:25;10.88;;;8.77;;
14272;SDS011;7220;49.450;11.052;2023-01-30T09:10:25;10.82;;;8.15;;
14272;SDS011;7220;49.450;11.052;2023-01-30T09:14:25;10.88;;;8.63;;
14272;SDS011;7220;49.450;11.052;2023-01-30T09:18:26;13.20;;;8.35;;
14272;SDS011;7220;49.450;11.052;2023-01-30T09:22:26;12.43;;;8.73;;
14272;SDS011;7220;49.450;11.052;2023-01-30T09:26:26;10.93;;;8.38;;
14272;SDS011;7220;49.450;11.052;2023-01-30T09:30:27;12.40;;;8.60;;
14272;SDS011;7220;49.450;11.052;2023-01-30T09:34:27;12.05;;;8.38;;
14272;SDS011;7220;49.450;11.052;2023-01-30T09:38:27;12.93;;;8.45;;
14272;SDS011;7220;49.450;11.052;2023-01-30T09:47:08;13.27;;;9.55;;
14272;SDS011;7220;49.450;11.052;2023-01-30T09:51:14;11.20;;;8.57;;
14272;SDS011;7220;49.450;11.052;2023-01-30T09:55:37;10.30;;;7.90;;
14272;SDS011;7220;49.450;11.052;2023-01-30T09:59:43;10.32;;;7.70;;
14272;SDS011;7220;49.450;11.052;2023-01-30T10:04:34;8.82;;;6.95;;
14272;SDS011;7220;49.450;11.052;2023-01-30T10:17:31;7.25;;;5.70;;
14272;SDS011;7220;49.450;11.052;2023-01-30T10:26:19;7.45;;;5.65;;
14272;SDS011;7220;49.450;11.052;2023-01-30T10:30:22;7.97;;;5.40;;
14272;SDS011;7220;49.450;11.052;2023-01-30T10:34:27;6.75;;;5.55;;
14272;SDS011;7220;49.450;11.052;2023-01-30T10:38:40;6.78;;;5.30;;
14272;SDS011;7220;49.450;11.052;2023-01-30T10:42:49;5.18;;;4.63;;
14272;SDS011;7220;49.450;11.052;2023-01-30T10:55:38;5.95;;;4.95;;
14272;SDS011;7220;49.450;11.052;2023-01-30T11:04:24;5.57;;;4.57;;
14272;SDS011;7220;49.450;11.052;2023-01-30T11:08:30;5.45;;;4.30;;
14272;SDS011;7220;49.450;11.052;2023-01-30T11:12:32;6.68;;;4.78;;
14272;SDS011;7220;49.450;11.052;2023-01-30T11:16:39;5.50;;;4.85;;
14272;SDS011;7220;49.450;11.052;2023-01-30T11:20:44;5.05;;;4.45;;
14272;SDS011;7220;49.450;11.052;2023-01-30T11:25:04;6.05;;;4.57;;
14272;SDS011;7220;49.450;11.052;2023-01-30T11:33:22;5.75;;;4.93;;
14272;SDS011;7220;49.450;11.052;2023-01-30T11:37:31;4.85;;;4.43;;
14272;SDS011;7220;49.450;11.052;2023-01-30T11:41:33;6.38;;;4.93;;
14272;SDS011;7220;49.450;11.052;2023-01-30T11:45:34;5.22;;;4.55;;
14272;SDS011;7220;49.450;11.052;2023-01-30T11:49:42;5.57;;;4.70;;
14272;SDS011;7220;49.450;11.052;2023-01-30T11:53:55;5.35;;;4.80;;
14272;SDS011;7220;49.450;11.052;2023-01-30T11:57:58;5.20;;;4.45;;
14272;SDS011;7220;49.450;11.052;2023-01-30T12:06:37;5.38;;;4.40;;
14272;SDS011;7220;49.450;11.052;2023-01-30T12:10:40;5.40;;;4.70;;
14272;SDS011;7220;49.450;11.052;2023-01-30T12:14:44;7.22;;;4.30;;
14272;SDS011;7220;49.450;11.052;2023-01-30T12:23:38;4.85;;;4.35;;
14272;SDS011;7220;49.450;11.052;2023-01-30T12:32:11;4.90;;;4.50;;
14272;SDS011;7220;49.450;11.052;2023-01-30T12:49:10;5.43;;;4.35;;
14272;SDS011;7220;49.450;11.052;2023-01-30T12:53:36;5.90;;;4.07;;
14272;SDS011;7220;49.450;11.052;2023-01-30T12:57:51;6.70;;;5.20;;
14272;SDS011;7220;49.450;11.052;2023-01-30T13:10:54;5.18;;;4.40;;
14272;SDS011;7220;49.450;11.052;2023-01-30T13:28:25;5.68;;;4.85;;
14272;SDS011;7220;49.450;11.052;2023-01-30T13:36:36;5.60;;;5.05;;
14272;SDS011;7220;49.450;11.052;2023-01-30T13:40:43;4.30;;;3.90;;
14272;SDS011;7220;49.450;11.052;2023-01-30T13:44:44;5.75;;;4.63;;
14272;SDS011;7220;49.450;11.052;2023-01-30T13:49:04;7.35;;;5.22;;
14272;SDS011;7220;49.450;11.052;2023-01-30T13:53:18;5.10;;;4.60;;
14272;SDS011;7220;49.450;11.052;2023-01-30T13:57:42;4.80;;;4.30;;
14272;SDS011;7220;49.450;11.052;2023-01-30T14:06:01;7.10;;;5.10;;
14272;SDS011;7220;49.450;11.052;2023-01-30T14:18:21;5.57;;;4.95;;
14272;SDS011;7220;49.450;11.052;2023-01-30T14:22:32;6.13;;;5.20;;
14272;SDS011;7220;49.450;11.052;2023-01-30T14:30:52;5.65;;;5.03;;
14272;SDS011;7220;49.450;11.052;2023-01-30T14:43:53;7.70;;;6.43;;
14272;SDS011;7220;49.450;11.052;2023-01-30T14:48:19;7.35;;;5.57;;
14272;SDS011;7220;49.450;11.052;2023-01-30T14:52:39;6.57;;;5.13;;
14272;SDS011;7220;49.450;11.052;2023-01-30T15:01:00;7.07;;;5.75;;
14272;SDS011;7220;49.450;11.052;2023-01-30T15:09:00;6.87;;;4.43;;
14272;SDS011;7220;49.450;11.052;2023-01-30T15:13:22;5.28;;;4.40;;
14272;SDS011;7220;49.450;11.052;2023-01-30T15:17:42;5.45;;;4.65;;
14272;SDS011;7220;49.450;11.052;2023-01-30T15:22:02;5.57;;;4.30;;
14272;SDS011;7220;49.450;11.052;2023-01-30T15:39:01;5.35;;;4.85;;
14272;SDS011;7220;49.450;11.052;2023-01-30T15:44:08;5.78;;;4.07;;
14272;SDS011;7220;49.450;11.052;2023-01-30T15:52:02;8.23;;;5.43;;
14272;SDS011;7220;49.450;11.052;2023-01-30T15:56:05;5.57;;;5.15;;
14272;SDS011;7220;49.450;11.052;2023-01-30T16:00:15;7.50;;;5.72;;
14272;SDS011;7220;49.450;11.052;2023-01-30T16:04:26;9.80;;;6.85;;
14272;SDS011;7220;49.450;11.052;2023-01-30T16:08:32;9.82;;;6.72;;
14272;SDS011;7220;49.450;11.052;2023-01-30T16:12:33;6.45;;;5.85;;
14272;SDS011;7220;49.450;11.052;2023-01-30T16:16:58;8.00;;;5.85;;
14272;SDS011;7220;49.450;11.052;2023-01-30T16:21:04;8.68;;;5.93;;
14272;SDS011;7220;49.450;11.052;2023-01-30T16:25:14;6.53;;;5.80;;
14272;SDS011;7220;49.450;11.052;2023-01-30T16:29:22;7.30;;;5.93;;
14272;SDS011;7220;49.450;11.052;2023-01-30T16:33:24;15.90;;;11.82;;
14272;SDS011;7220;49.450;11.052;2023-01-30T16:37:26;10.02;;;7.53;;
14272;SDS011;7220;49.450;11.052;2023-01-30T16:41:33;9.40;;;6.35;;
14272;SDS011;7220;49.450;11.052;2023-01-30T16:49:42;8.32;;;6.05;;
14272;SDS011;7220;49.450;11.052;2023-01-30T16:53:47;9.00;;;6.88;;
14272;SDS011;7220;49.450;11.052;2023-01-30T16:57:57;8.07;;;6.82;;
14272;SDS011;7220;49.450;11.052;2023-01-30T17:02:03;9.32;;;6.93;;
14272;SDS011;7220;49.450;11.052;2023-01-30T17:06:06;9.50;;;7.10;;
14272;SDS011;7220;49.450;11.052;2023-01-30T17:14:27;9.75;;;7.07;;
14272;SDS011;7220;49.450;11.052;2023-01-30T17:18:30;7.65;;;6.20;;
14272;SDS011;7220;49.450;11.052;2023-01-30T17:22:30;8.03;;;6.33;;
14272;SDS011;7220;49.450;11.052;2023-01-30T17:26:31;9.10;;;6.95;;
14272;SDS011;7220;49.450;11.052;2023-01-30T17:30:32;10.50;;;7.82;;
14272;SDS011;7220;49.450;11.052;2023-01-30T17:34:32;10.80;;;6.65;;
14272;SDS011;7220;49.450;11.052;2023-01-30T17:38:33;7.57;;;6.32;;
14272;SDS011;7220;49.450;11.052;2023-01-30T17:42:33;6.95;;;5.82;;
14272;SDS011;7220;49.450;11.052;2023-01-30T17:46:40;6.27;;;5.20;;
14272;SDS011;7220;49.450;11.052;2023-01-30T17:50:44;7.63;;;6.35;;
14272;SDS011;7220;49.450;11.052;2023-01-30T17:54:44;6.25;;;5.38;;
14272;SDS011;7220;49.450;11.052;2023-01-30T17:58:44;7.40;;;5.90;;
14272;SDS011;7220;49.450;11.052;2023-01-30T18:02:45;8.75;;;6.88;;
14272;SDS011;7220;49.450;11.052;2023-01-30T18:06:46;11.25;;;5.95;;
14272;SDS011;7220;49.450;11.052;2023-01-30T18:10:49;7.35;;;5.70;;
14272;SDS011;7220;49.450;11.052;2023-01-30T18:14:49;7.38;;;5.32;;
14272;SDS011;7220;49.450;11.052;2023-01-30T18:18:50;8.88;;;7.05;;
14272;SDS011;7220;49.450;11.052;2023-01-30T18:22:50;8.27;;;5.40;;
14272;SDS011;7220;49.450;11.052;2023-01-30T18:26:50;9.32;;;5.53;;
14272;SDS011;7220;49.450;11.052;2023-01-30T18:30:51;5.68;;;4.90;;
14272;SDS011;7220;49.450;11.052;2023-01-30T18:34:51;7.93;;;4.90;;
14272;SDS011;7220;49.450;11.052;2023-01-30T18:38:51;9.98;;;4.65;;
14272;SDS011;7220;49.450;11.052;2023-01-30T18:42:52;5.95;;;4.43;;
14272;SDS011;7220;49.450;11.052;2023-01-30T18:46:53;6.65;;;4.47;;
14272;SDS011;7220;49.450;11.052;2023-01-30T18:50:53;6.43;;;4.90;;
14272;SDS011;7220;49.450;11.052;2023-01-30T18:54:53;5.30;;;4.30;;
14272;SDS011;7220;49.450;11.052;2023-01-30T18:58:54;8.23;;;4.57;;
14272;SDS011;7220;49.450;11.052;2023-01-30T19:02:58;5.07;;;4.13;;
14272;SDS011;7220;49.450;11.052;2023-01-30T19:06:58;6.50;;;4.80;;
14272;SDS011;7220;49.450;11.052;2023-01-30T19:11:03;6.00;;;4.20;;
14272;SDS011;7220;49.450;11.052;2023-01-30T19:15:24;10.68;;;5.07;;
14272;SDS011;7220;49.450;11.052;2023-01-30T19:19:24;7.32;;;5.30;;
14272;SDS011;7220;49.450;11.052;2023-01-30T19:23:26;8.35;;;4.35;;
14272;SDS011;7220;49.450;11.052;2023-01-30T19:27:27;7.30;;;4.78;;
14272;SDS011;7220;49.450;11.052;2023-01-30T19:31:28;7.55;;;4.95;;
14272;SDS011;7220;49.450;11.052;2023-01-30T19:35:28;7.65;;;4.32;;
14272;SDS011;7220;49.450;11.052;2023-01-30T19:39:28;8.93;;;4.72;;
14272;SDS011;7220;49.450;11.052;2023-01-30T19:43:28;6.40;;;4.68;;
14272;SDS011;7220;49.450;11.052;2023-01-30T19:47:29;7.57;;;4.97;;
14272;SDS011;7220;49.450;11.052;2023-01-30T19:51:31;8.07;;;4.85;;
14272;SDS011;7220;49.450;11.052;2023-01-30T19:55:33;8.73;;;5.20;;
14272;SDS011;7220;49.450;11.052;2023-01-30T19:59:36;8.10;;;4.78;;
14272;SDS011;7220;49.450;11.052;2023-01-30T20:03:38;7.20;;;5.13;;
14272;SDS011;7220;49.450;11.052;2023-01-30T20:07:39;6.25;;;5.22;;
14272;SDS011;7220;49.450;11.052;2023-01-30T20:11:40;7.63;;;5.78;;
14272;SDS011;7220;49.450;11.052;2023-01-30T20:15:41;6.32;;;4.93;;
14272;SDS011;7220;49.450;11.052;2023-01-30T20:19:41;6.80;;;5.20;;
14272;SDS011;7220;49.450;11.052;2023-01-30T20:23:42;6.50;;;5.47;;
14272;SDS011;7220;49.450;11.052;2023-01-30T20:27:43;8.07;;;5.35;;
14272;SDS011;7220;49.450;11.052;2023-01-30T20:31:44;8.43;;;5.53;;
14272;SDS011;7220;49.450;11.052;2023-01-30T20:35:45;7.60;;;5.50;;
14272;SDS011;7220;49.450;11.052;2023-01-30T20:39:45;9.02;;;5.13;;
14272;SDS011;7220;49.450;11.052;2023-01-30T20:43:46;9.38;;;5.53;;
14272;SDS011;7220;49.450;11.052;2023-01-30T20:47:49;9.80;;;6.22;;
14272;SDS011;7220;49.450;11.052;2023-01-30T20:51:50;10.82;;;5.13;;
14272;SDS011;7220;49.450;11.052;2023-01-30T20:55:57;9.65;;;5.90;;
14272;SDS011;7220;49.450;11.052;2023-01-30T20:59:57;10.77;;;5.47;;
14272;SDS011;7220;49.450;11.052;2023-01-30T21:03:58;8.32;;;5.28;;
14272;SDS011;7220;49.450;11.052;2023-01-30T21:07:58;8.18;;;5.28;;
14272;SDS011;7220;49.450;11.052;2023-01-30T21:11:59;12.65;;;5.90;;
14272;SDS011;7220;49.450;11.052;2023-01-30T21:16:06;9.18;;;5.25;;
14272;SDS011;7220;49.450;11.052;2023-01-30T21:20:09;8.73;;;5.60;;
14272;SDS011;7220;49.450;11.052;2023-01-30T21:24:11;10.40;;;5.47;;
14272;SDS011;7220;49.450;11.052;2023-01-30T21:28:12;7.70;;;5.45;;
14272;SDS011;7220;49.450;11.052;2023-01-30T21:32:13;13.20;;;6.07;;
14272;SDS011;7220;49.450;11.052;2023-01-30T21:36:13;12.35;;;5.35;;
14272;SDS011;7220;49.450;11.052;2023-01-30T21:40:14;9.30;;;5.00;;
14272;SDS011;7220;49.450;11.052;2023-01-30T21:44:34;6.25;;;4.65;;
14272;SDS011;7220;49.450;11.052;2023-01-30T21:48:39;9.23;;;4.70;;
14272;SDS011;7220;49.450;11.052;2023-01-30T21:52:40;9.07;;;4.60;;
14272;SDS011;7220;49.450;11.052;2023-01-30T21:56:40;8.30;;;4.30;;
14272;SDS011;7220;49.450;11.052;2023-01-30T22:00:41;11.25;;;4.82;;
14272;SDS011;7220;49.450;11.052;2023-01-30T22:04:41;7.80;;;5.38;;
14272;SDS011;7220;49.450;11.052;2023-01-30T22:08:42;9.45;;;5.00;;
14272;SDS011;7220;49.450;11.052;2023-01-30T22:12:42;12.55;;;5.28;;
14272;SDS011;7220;49.450;11.052;2023-01-30T22:16:42;11.45;;;5.15;;
14272;SDS011;7220;49.450;11.052;2023-01-30T22:20:43;8.93;;;4.75;;
14272;SDS011;7220;49.450;11.052;2023-01-30T22:24:43;8.13;;;4.63;;
14272;SDS011;7220;49.450;11.052;2023-01-30T22:28:43;8.80;;;4.97;;
14272;SDS011;7220;49.450;11.052;2023-01-30T22:32:44;8.13;;;5.13;;
14272;SDS011;7220;49.450;11.052;2023-01-30T22:36:45;11.65;;;6.25;;
14272;SDS011;7220;49.450;11.052;2023-01-30T22:40:46;8.88;;;5.38;;
14272;SDS011;7220;49.450;11.052;2023-01-30T22:44:47;10.90;;;6.27;;
14272;SDS011;7220;49.450;11.052;2023-01-30T22:48:47;10.65;;;6.05;;
14272;SDS011;7220;49.450;11.052;2023-01-30T22:52:47;9.48;;;5.60;;
14272;SDS011;7220;49.450;11.052;2023-01-30T22:56:48;9.43;;;5.05;;
14272;SDS011;7220;49.450;11.052;2023-01-30T23:00:48;10.07;;;5.38;;
14272;SDS011;7220;49.450;11.052;2023-01-30T23:04:48;11.35;;;5.20;;
14272;SDS011;7220;49.450;11.052;2023-01-30T23:08:52;10.05;;;5.35;;
14272;SDS011;7220;49.450;11.052;2023-01-30T23:12:54;10.50;;;5.20;;
14272;SDS011;7220;49.450;11.052;2023-01-30T23:17:06;8.15;;;4.72;;
14272;SDS011;7220;49.450;11.052;2023-01-30T23:21:26;7.63;;;4.88;;
14272;SDS011;7220;49.450;11.052;2023-01-30T23:25:28;12.07;;;5.57;;
14272;SDS011;7220;49.450;11.052;2023-01-30T23:29:29;12.43;;;5.68;;
14272;SDS011;7220;49.450;11.052;2023-01-30T23:33:29;12.25;;;5.40;;
14272;SDS011;7220;49.450;11.052;2023-01-30T23:37:30;12.00;;;5.93;;
14272;SDS011;7220;49.450;11.052;2023-01-30T23:41:49;10.32;;;5.75;;
14272;SDS011;7220;49.450;11.052;2023-01-30T23:45:50;11.38;;;5.18;;
14272;SDS011;7220;49.450;11.052;2023-01-30T23:49:52;9.90;;;5.40;;
14272;SDS011;7220;49.450;11.052;2023-01-30T23:53:53;11.40;;;5.45;;
14272;SDS011;7220;49.450;11.052;2023-01-30T23:57:53;13.23;;;6.18;;
